sensor_id;sensor_type;location;lat;lon;timestamp;temperature;humidity
11264;DHT22;5689;48.798;9.070;2024-01-11T00:00:57;-5.60;99.90
11264;DHT22;5689;48.798;9.070;2024-01-11T00:03:26;-5.60;99.90
11264;DHT22;5689;48.798;9.070;2024-01-11T00:05:54;-5.50;99.90
11264;DHT22;5689;48.798;9.070;2024-01-11T00:08:22;-5.50;99.90
11264;DHT22;5689;48.798;9.070;2024-01-11T00:10:50;-5.40;99.90
11264;DHT22;5689;48.798;9.070;2024-01-11T00:13:18;-5.40;99.90
11264;DHT22;5689;48.798;9.070;2024-01-11T00:15:46;-5.60;99.90
11264;DHT22;5689;48.798;9.070;2024-01-11T00:18:16;-5.60;99.90
11264;DHT22;5689;48.798;9.070;2024-01-11T00:20:45;-5.70;99.90
11264;DHT22;5689;48.798;9.070;2024-01-11T00:23:13;-5.80;99.90
11264;DHT22;5689;48.798;9.070;2024-01-11T00:25:41;-5.80;99.90
11264;DHT22;5689;48.798;9.070;2024-01-11T00:28:09;-5.80;99.90
11264;DHT22;5689;48.798;9.070;2024-01-11T00:30:37;-5.70;99.90
11264;DHT22;5689;48.798;9.070;2024-01-11T00:33:06;-5.80;99.90
11264;DHT22;5689;48.798;9.070;2024-01-11T00:35:37;-5.90;99.90
11264;DHT22;5689;48.798;9.070;2024-01-11T00:38:05;-5.90;99.90
11264;DHT22;5689;48.798;9.070;2024-01-11T00:40:33;-5.90;99.90
11264;DHT22;5689;48.798;9.070;2024-01-11T00:43:01;-5.90;99.90
11264;DHT22;5689;48.798;9.070;2024-01-11T00:45:29;-6.00;99.90
11264;DHT22;5689;48.798;9.070;2024-01-11T00:47:57;-6.00;99.90
11264;DHT22;5689;48.798;9.070;2024-01-11T00:50:25;-6.00;99.90
11264;DHT22;5689;48.798;9.070;2024-01-11T00:52:55;-5.90;99.90
11264;DHT22;5689;48.798;9.070;2024-01-11T00:55:23;-6.00;99.90
11264;DHT22;5689;48.798;9.070;2024-01-11T00:57:52;-6.00;99.90
11264;DHT22;5689;48.798;9.070;2024-01-11T01:00:20;-6.00;99.90
11264;DHT22;5689;48.798;9.070;2024-01-11T01:02:48;-6.00;99.90
11264;DHT22;5689;48.798;9.070;2024-01-11T01:05:16;-5.90;99.90
11264;DHT22;5689;48.798;9.070;2024-01-11T01:07:45;-6.10;99.90
11264;DHT22;5689;48.798;9.070;2024-01-11T01:10:15;-6.10;99.90
11264;DHT22;5689;48.798;9.070;2024-01-11T01:12:43;-5.80;99.90
11264;DHT22;5689;48.798;9.070;2024-01-11T01:15:11;-5.80;99.90
11264;DHT22;5689;48.798;9.070;2024-01-11T01:17:41;-6.00;99.90
11264;DHT22;5689;48.798;9.070;2024-01-11T01:20:10;-6.00;99.90
11264;DHT22;5689;48.798;9.070;2024-01-11T01:22:38;-6.10;99.90
11264;DHT22;5689;48.798;9.070;2024-01-11T01:25:07;-6.20;99.90
11264;DHT22;5689;48.798;9.070;2024-01-11T01:27:36;-6.20;99.90
11264;DHT22;5689;48.798;9.070;2024-01-11T01:30:06;-6.20;99.90
11264;DHT22;5689;48.798;9.070;2024-01-11T01:32:35;-6.20;99.90
11264;DHT22;5689;48.798;9.070;2024-01-11T01:35:04;-6.10;99.90
11264;DHT22;5689;48.798;9.070;2024-01-11T01:37:32;-6.00;99.90
11264;DHT22;5689;48.798;9.070;2024-01-11T01:40:01;-5.80;99.90
11264;DHT22;5689;48.798;9.070;2024-01-11T01:42:30;-5.90;99.90
11264;DHT22;5689;48.798;9.070;2024-01-11T01:44:59;-6.10;99.90
11264;DHT22;5689;48.798;9.070;2024-01-11T01:47:27;-6.20;99.90
11264;DHT22;5689;48.798;9.070;2024-01-11T01:49:56;-6.20;99.90
11264;DHT22;5689;48.798;9.070;2024-01-11T01:52:24;-6.20;99.90
11264;DHT22;5689;48.798;9.070;2024-01-11T01:54:53;-6.20;99.90
11264;DHT22;5689;48.798;9.070;2024-01-11T01:57:22;-6.20;99.90
11264;DHT22;5689;48.798;9.070;2024-01-11T01:59:51;-6.30;99.90
11264;DHT22;5689;48.798;9.070;2024-01-11T02:02:22;-6.20;99.90
11264;DHT22;5689;48.798;9.070;2024-01-11T02:04:51;-6.30;99.90
11264;DHT22;5689;48.798;9.070;2024-01-11T02:07:19;-6.30;99.90
11264;DHT22;5689;48.798;9.070;2024-01-11T02:09:48;-6.10;99.90
11264;DHT22;5689;48.798;9.070;2024-01-11T02:12:16;-6.20;99.90
11264;DHT22;5689;48.798;9.070;2024-01-11T02:14:45;-6.30;99.90
11264;DHT22;5689;48.798;9.070;2024-01-11T02:17:13;-6.20;99.90
11264;DHT22;5689;48.798;9.070;2024-01-11T02:19:43;-6.20;99.90
11264;DHT22;5689;48.798;9.070;2024-01-11T02:22:20;-6.30;99.90
11264;DHT22;5689;48.798;9.070;2024-01-11T02:24:51;-6.20;99.90
11264;DHT22;5689;48.798;9.070;2024-01-11T02:27:20;-6.20;99.90
11264;DHT22;5689;48.798;9.070;2024-01-11T02:29:48;-6.30;99.90
11264;DHT22;5689;48.798;9.070;2024-01-11T02:32:16;-6.40;99.90
11264;DHT22;5689;48.798;9.070;2024-01-11T02:34:44;-6.40;99.90
11264;DHT22;5689;48.798;9.070;2024-01-11T02:37:13;-6.40;99.90
11264;DHT22;5689;48.798;9.070;2024-01-11T02:39:42;-6.40;99.90
11264;DHT22;5689;48.798;9.070;2024-01-11T02:42:11;-6.30;99.90
11264;DHT22;5689;48.798;9.070;2024-01-11T02:44:40;-6.20;99.90
11264;DHT22;5689;48.798;9.070;2024-01-11T02:47:09;-5.90;99.90
11264;DHT22;5689;48.798;9.070;2024-01-11T02:49:37;-6.10;99.90
11264;DHT22;5689;48.798;9.070;2024-01-11T02:52:05;-6.30;99.90
11264;DHT22;5689;48.798;9.070;2024-01-11T02:54:33;-6.40;99.90
11264;DHT22;5689;48.798;9.070;2024-01-11T02:57:02;-6.40;99.90
11264;DHT22;5689;48.798;9.070;2024-01-11T02:59:32;-6.40;99.90
11264;DHT22;5689;48.798;9.070;2024-01-11T03:02:01;-6.40;99.90
11264;DHT22;5689;48.798;9.070;2024-01-11T03:04:29;-6.30;99.90
11264;DHT22;5689;48.798;9.070;2024-01-11T03:06:57;-6.40;99.90
11264;DHT22;5689;48.798;9.070;2024-01-11T03:09:25;-6.50;99.90
11264;DHT22;5689;48.798;9.070;2024-01-11T03:11:53;-6.60;99.90
11264;DHT22;5689;48.798;9.070;2024-01-11T03:14:21;-6.50;99.90
11264;DHT22;5689;48.798;9.070;2024-01-11T03:16:51;-6.70;99.90
11264;DHT22;5689;48.798;9.070;2024-01-11T03:19:19;-6.70;99.90
11264;DHT22;5689;48.798;9.070;2024-01-11T03:21:47;-6.70;99.90
11264;DHT22;5689;48.798;9.070;2024-01-11T03:24:15;-6.80;99.90
11264;DHT22;5689;48.798;9.070;2024-01-11T03:26:43;-6.80;99.90
11264;DHT22;5689;48.798;9.070;2024-01-11T03:29:12;-6.70;99.90
11264;DHT22;5689;48.798;9.070;2024-01-11T03:31:40;-6.70;99.90
11264;DHT22;5689;48.798;9.070;2024-01-11T03:34:11;-6.40;99.90
11264;DHT22;5689;48.798;9.070;2024-01-11T03:36:39;-6.20;99.90
11264;DHT22;5689;48.798;9.070;2024-01-11T03:39:08;-6.30;99.90
11264;DHT22;5689;48.798;9.070;2024-01-11T03:41:36;-6.50;99.90
11264;DHT22;5689;48.798;9.070;2024-01-11T03:44:05;-6.60;99.90
11264;DHT22;5689;48.798;9.070;2024-01-11T03:46:34;-6.70;99.90
11264;DHT22;5689;48.798;9.070;2024-01-11T03:49:03;-6.70;99.90
11264;DHT22;5689;48.798;9.070;2024-01-11T03:51:33;-6.80;99.90
11264;DHT22;5689;48.798;9.070;2024-01-11T03:54:01;-6.80;99.90
11264;DHT22;5689;48.798;9.070;2024-01-11T03:56:29;-6.70;99.90
11264;DHT22;5689;48.798;9.070;2024-01-11T03:58:57;-6.70;99.90
11264;DHT22;5689;48.798;9.070;2024-01-11T04:01:26;-6.70;99.90
11264;DHT22;5689;48.798;9.070;2024-01-11T04:03:54;-6.80;99.90
11264;DHT22;5689;48.798;9.070;2024-01-11T04:06:22;-6.80;99.90
11264;DHT22;5689;48.798;9.070;2024-01-11T04:08:52;-6.90;99.90
11264;DHT22;5689;48.798;9.070;2024-01-11T04:11:21;-7.00;99.90
11264;DHT22;5689;48.798;9.070;2024-01-11T04:13:49;-7.00;99.90
11264;DHT22;5689;48.798;9.070;2024-01-11T04:16:18;-7.00;99.90
11264;DHT22;5689;48.798;9.070;2024-01-11T04:18:46;-6.90;99.90
11264;DHT22;5689;48.798;9.070;2024-01-11T04:21:21;-6.90;99.90
11264;DHT22;5689;48.798;9.070;2024-01-11T04:23:51;-6.70;99.90
11264;DHT22;5689;48.798;9.070;2024-01-11T04:26:19;-6.60;99.90
11264;DHT22;5689;48.798;9.070;2024-01-11T04:28:48;-6.60;99.90
11264;DHT22;5689;48.798;9.070;2024-01-11T04:31:17;-6.50;99.90
11264;DHT22;5689;48.798;9.070;2024-01-11T04:33:45;-6.40;99.90
11264;DHT22;5689;48.798;9.070;2024-01-11T04:36:13;-6.50;99.90
11264;DHT22;5689;48.798;9.070;2024-01-11T04:38:41;-6.60;99.90
11264;DHT22;5689;48.798;9.070;2024-01-11T04:41:11;-6.70;99.90
11264;DHT22;5689;48.798;9.070;2024-01-11T04:43:40;-6.80;99.90
11264;DHT22;5689;48.798;9.070;2024-01-11T04:46:16;-6.70;99.90
11264;DHT22;5689;48.798;9.070;2024-01-11T04:48:45;-6.70;99.90
11264;DHT22;5689;48.798;9.070;2024-01-11T04:51:14;-6.60;99.90
11264;DHT22;5689;48.798;9.070;2024-01-11T04:53:43;-6.80;99.90
11264;DHT22;5689;48.798;9.070;2024-01-11T04:56:14;-6.90;99.90
11264;DHT22;5689;48.798;9.070;2024-01-11T04:58:44;-6.90;99.90
11264;DHT22;5689;48.798;9.070;2024-01-11T05:01:13;-7.00;99.90
11264;DHT22;5689;48.798;9.070;2024-01-11T05:03:42;-7.00;99.90
11264;DHT22;5689;48.798;9.070;2024-01-11T05:06:15;-7.00;99.90
11264;DHT22;5689;48.798;9.070;2024-01-11T05:08:44;-7.10;99.90
11264;DHT22;5689;48.798;9.070;2024-01-11T05:11:18;-7.20;99.90
11264;DHT22;5689;48.798;9.070;2024-01-11T05:13:46;-7.20;99.90
11264;DHT22;5689;48.798;9.070;2024-01-11T05:16:20;-7.20;99.90
11264;DHT22;5689;48.798;9.070;2024-01-11T05:18:48;-7.20;99.90
11264;DHT22;5689;48.798;9.070;2024-01-11T05:21:16;-7.30;99.90
11264;DHT22;5689;48.798;9.070;2024-01-11T05:23:45;-7.30;99.90
11264;DHT22;5689;48.798;9.070;2024-01-11T05:26:14;-7.10;99.90
11264;DHT22;5689;48.798;9.070;2024-01-11T05:28:43;-7.00;99.90
11264;DHT22;5689;48.798;9.070;2024-01-11T05:31:13;-7.10;99.90
11264;DHT22;5689;48.798;9.070;2024-01-11T05:33:42;-7.20;99.90
11264;DHT22;5689;48.798;9.070;2024-01-11T05:36:10;-6.90;99.90
11264;DHT22;5689;48.798;9.070;2024-01-11T05:38:39;-6.80;99.90
11264;DHT22;5689;48.798;9.070;2024-01-11T05:41:08;-6.90;99.90
11264;DHT22;5689;48.798;9.070;2024-01-11T05:43:37;-7.10;99.90
11264;DHT22;5689;48.798;9.070;2024-01-11T05:46:07;-7.30;99.90
11264;DHT22;5689;48.798;9.070;2024-01-11T05:48:35;-7.30;99.90
11264;DHT22;5689;48.798;9.070;2024-01-11T05:51:03;-7.30;99.90
11264;DHT22;5689;48.798;9.070;2024-01-11T05:53:31;-7.20;99.90
11264;DHT22;5689;48.798;9.070;2024-01-11T05:56:06;-7.30;99.90
11264;DHT22;5689;48.798;9.070;2024-01-11T05:58:35;-7.20;99.90
11264;DHT22;5689;48.798;9.070;2024-01-11T06:01:04;-7.20;99.90
11264;DHT22;5689;48.798;9.070;2024-01-11T06:03:34;-7.20;99.90
11264;DHT22;5689;48.798;9.070;2024-01-11T06:06:03;-7.20;99.90
11264;DHT22;5689;48.798;9.070;2024-01-11T06:08:32;-7.30;99.90
11264;DHT22;5689;48.798;9.070;2024-01-11T06:11:00;-7.20;99.90
11264;DHT22;5689;48.798;9.070;2024-01-11T06:13:28;-7.20;99.90
11264;DHT22;5689;48.798;9.070;2024-01-11T06:15:56;-7.30;99.90
11264;DHT22;5689;48.798;9.070;2024-01-11T06:18:24;-7.40;99.90
11264;DHT22;5689;48.798;9.070;2024-01-11T06:20:54;-7.20;99.90
11264;DHT22;5689;48.798;9.070;2024-01-11T06:23:25;-7.20;99.90
11264;DHT22;5689;48.798;9.070;2024-01-11T06:25:53;-7.20;99.90
11264;DHT22;5689;48.798;9.070;2024-01-11T06:28:21;-7.10;99.90
11264;DHT22;5689;48.798;9.070;2024-01-11T06:30:49;-7.10;99.90
11264;DHT22;5689;48.798;9.070;2024-01-11T06:33:17;-7.10;99.90
11264;DHT22;5689;48.798;9.070;2024-01-11T06:35:47;-7.00;99.90
11264;DHT22;5689;48.798;9.070;2024-01-11T06:38:16;-7.10;99.90
11264;DHT22;5689;48.798;9.070;2024-01-11T06:40:44;-7.10;99.90
11264;DHT22;5689;48.798;9.070;2024-01-11T06:43:12;-7.20;99.90
11264;DHT22;5689;48.798;9.070;2024-01-11T06:45:42;-7.20;99.90
11264;DHT22;5689;48.798;9.070;2024-01-11T06:48:10;-7.30;99.90
11264;DHT22;5689;48.798;9.070;2024-01-11T06:50:38;-7.30;99.90
11264;DHT22;5689;48.798;9.070;2024-01-11T06:53:07;-7.40;99.90
11264;DHT22;5689;48.798;9.070;2024-01-11T06:55:36;-7.10;99.90
11264;DHT22;5689;48.798;9.070;2024-01-11T06:58:04;-7.00;99.90
11264;DHT22;5689;48.798;9.070;2024-01-11T07:00:32;-7.00;99.90
11264;DHT22;5689;48.798;9.070;2024-01-11T07:03:00;-7.10;99.90
11264;DHT22;5689;48.798;9.070;2024-01-11T07:05:29;-7.10;99.90
11264;DHT22;5689;48.798;9.070;2024-01-11T07:07:57;-7.10;99.90
11264;DHT22;5689;48.798;9.070;2024-01-11T07:10:26;-7.20;99.90
11264;DHT22;5689;48.798;9.070;2024-01-11T07:12:55;-7.10;99.90
11264;DHT22;5689;48.798;9.070;2024-01-11T07:15:23;-7.20;99.90
11264;DHT22;5689;48.798;9.070;2024-01-11T07:17:52;-7.00;99.90
11264;DHT22;5689;48.798;9.070;2024-01-11T07:20:20;-6.90;99.90
11264;DHT22;5689;48.798;9.070;2024-01-11T07:22:48;-6.90;99.90
11264;DHT22;5689;48.798;9.070;2024-01-11T07:25:16;-6.90;99.90
11264;DHT22;5689;48.798;9.070;2024-01-11T07:27:44;-6.80;99.90
11264;DHT22;5689;48.798;9.070;2024-01-11T07:30:15;-6.70;99.90
11264;DHT22;5689;48.798;9.070;2024-01-11T07:32:44;-6.50;99.90
11264;DHT22;5689;48.798;9.070;2024-01-11T07:35:13;-6.50;99.90
11264;DHT22;5689;48.798;9.070;2024-01-11T07:37:43;-6.70;99.90
11264;DHT22;5689;48.798;9.070;2024-01-11T07:40:11;-6.70;99.90
11264;DHT22;5689;48.798;9.070;2024-01-11T07:42:41;-6.80;99.90
11264;DHT22;5689;48.798;9.070;2024-01-11T07:45:10;-6.80;99.90
11264;DHT22;5689;48.798;9.070;2024-01-11T07:47:40;-6.70;99.90
11264;DHT22;5689;48.798;9.070;2024-01-11T07:50:09;-6.50;99.90
11264;DHT22;5689;48.798;9.070;2024-01-11T07:52:37;-6.40;99.90
11264;DHT22;5689;48.798;9.070;2024-01-11T07:55:06;-6.50;99.90
11264;DHT22;5689;48.798;9.070;2024-01-11T07:57:34;-6.30;99.90
11264;DHT22;5689;48.798;9.070;2024-01-11T08:00:03;-6.20;99.90
11264;DHT22;5689;48.798;9.070;2024-01-11T08:02:43;-6.20;99.90
11264;DHT22;5689;48.798;9.070;2024-01-11T08:05:12;-6.20;99.90
11264;DHT22;5689;48.798;9.070;2024-01-11T08:07:40;-5.90;99.90
11264;DHT22;5689;48.798;9.070;2024-01-11T08:10:09;-5.50;99.90
11264;DHT22;5689;48.798;9.070;2024-01-11T08:12:37;-5.50;99.90
11264;DHT22;5689;48.798;9.070;2024-01-11T08:15:06;-5.70;99.90
11264;DHT22;5689;48.798;9.070;2024-01-11T08:17:37;-5.70;99.90
11264;DHT22;5689;48.798;9.070;2024-01-11T08:20:09;-5.80;99.90
11264;DHT22;5689;48.798;9.070;2024-01-11T08:22:39;-5.70;99.90
11264;DHT22;5689;48.798;9.070;2024-01-11T08:25:08;-5.60;99.90
11264;DHT22;5689;48.798;9.070;2024-01-11T08:27:36;-5.40;99.90
11264;DHT22;5689;48.798;9.070;2024-01-11T08:30:05;-5.30;99.90
11264;DHT22;5689;48.798;9.070;2024-01-11T08:32:35;-5.30;99.90
11264;DHT22;5689;48.798;9.070;2024-01-11T08:35:07;-5.10;99.90
11264;DHT22;5689;48.798;9.070;2024-01-11T08:37:36;-5.10;99.90
11264;DHT22;5689;48.798;9.070;2024-01-11T08:40:06;-4.90;99.90
11264;DHT22;5689;48.798;9.070;2024-01-11T08:42:36;-4.60;99.90
11264;DHT22;5689;48.798;9.070;2024-01-11T08:45:05;-4.60;99.90
11264;DHT22;5689;48.798;9.070;2024-01-11T08:47:34;-4.50;99.90
11264;DHT22;5689;48.798;9.070;2024-01-11T08:50:09;-4.10;99.90
11264;DHT22;5689;48.798;9.070;2024-01-11T08:52:43;-4.00;99.90
11264;DHT22;5689;48.798;9.070;2024-01-11T08:55:11;-4.10;99.90
11264;DHT22;5689;48.798;9.070;2024-01-11T08:57:40;-4.00;99.90
11264;DHT22;5689;48.798;9.070;2024-01-11T09:00:09;-3.90;99.90
11264;DHT22;5689;48.798;9.070;2024-01-11T09:02:37;-4.10;99.90
11264;DHT22;5689;48.798;9.070;2024-01-11T09:05:06;-4.00;99.90
11264;DHT22;5689;48.798;9.070;2024-01-11T09:07:36;-4.00;99.90
11264;DHT22;5689;48.798;9.070;2024-01-11T09:10:06;-3.70;99.90
11264;DHT22;5689;48.798;9.070;2024-01-11T09:12:35;-3.70;99.90
11264;DHT22;5689;48.798;9.070;2024-01-11T09:15:04;-3.60;99.90
11264;DHT22;5689;48.798;9.070;2024-01-11T09:17:33;-3.80;99.90
11264;DHT22;5689;48.798;9.070;2024-01-11T09:20:01;-3.90;99.90
11264;DHT22;5689;48.798;9.070;2024-01-11T09:22:29;-3.70;99.90
11264;DHT22;5689;48.798;9.070;2024-01-11T09:24:59;-3.60;99.90
11264;DHT22;5689;48.798;9.070;2024-01-11T09:27:27;-3.50;99.90
11264;DHT22;5689;48.798;9.070;2024-01-11T09:29:55;-3.50;99.90
11264;DHT22;5689;48.798;9.070;2024-01-11T09:32:22;-3.40;99.90
11264;DHT22;5689;48.798;9.070;2024-01-11T09:34:51;-3.50;99.90
11264;DHT22;5689;48.798;9.070;2024-01-11T09:37:20;-3.30;99.90
11264;DHT22;5689;48.798;9.070;2024-01-11T09:39:48;-3.10;99.90
11264;DHT22;5689;48.798;9.070;2024-01-11T09:42:18;-2.90;99.90
11264;DHT22;5689;48.798;9.070;2024-01-11T09:44:47;-2.60;99.90
11264;DHT22;5689;48.798;9.070;2024-01-11T09:47:16;-2.50;99.90
11264;DHT22;5689;48.798;9.070;2024-01-11T09:49:48;-2.50;99.90
11264;DHT22;5689;48.798;9.070;2024-01-11T09:52:20;-2.40;99.90
11264;DHT22;5689;48.798;9.070;2024-01-11T09:54:49;-2.10;99.90
11264;DHT22;5689;48.798;9.070;2024-01-11T09:57:24;-2.40;99.90
11264;DHT22;5689;48.798;9.070;2024-01-11T09:59:54;-2.60;99.90
11264;DHT22;5689;48.798;9.070;2024-01-11T10:02:23;-2.40;99.90
11264;DHT22;5689;48.798;9.070;2024-01-11T10:04:53;-2.00;99.90
11264;DHT22;5689;48.798;9.070;2024-01-11T10:07:22;-1.90;99.90
11264;DHT22;5689;48.798;9.070;2024-01-11T10:09:51;-1.80;99.90
11264;DHT22;5689;48.798;9.070;2024-01-11T10:12:21;-1.30;99.90
11264;DHT22;5689;48.798;9.070;2024-01-11T10:14:51;-1.00;99.90
11264;DHT22;5689;48.798;9.070;2024-01-11T10:17:20;-0.70;99.90
11264;DHT22;5689;48.798;9.070;2024-01-11T10:19:48;-0.30;99.90
11264;DHT22;5689;48.798;9.070;2024-01-11T10:22:17;-0.20;99.90
11264;DHT22;5689;48.798;9.070;2024-01-11T10:24:45;0.10;99.90
11264;DHT22;5689;48.798;9.070;2024-01-11T10:27:13;0.50;99.90
11264;DHT22;5689;48.798;9.070;2024-01-11T10:29:43;0.80;99.90
11264;DHT22;5689;48.798;9.070;2024-01-11T10:32:11;1.20;99.90
11264;DHT22;5689;48.798;9.070;2024-01-11T10:34:39;1.90;99.90
11264;DHT22;5689;48.798;9.070;2024-01-11T10:37:09;3.10;99.90
11264;DHT22;5689;48.798;9.070;2024-01-11T10:39:38;2.80;99.90
11264;DHT22;5689;48.798;9.070;2024-01-11T10:42:09;4.70;98.50
11264;DHT22;5689;48.798;9.070;2024-01-11T10:44:40;5.20;95.60
11264;DHT22;5689;48.798;9.070;2024-01-11T10:47:12;7.50;90.00
11264;DHT22;5689;48.798;9.070;2024-01-11T10:49:42;9.00;83.60
11264;DHT22;5689;48.798;9.070;2024-01-11T10:52:12;10.00;76.60
11264;DHT22;5689;48.798;9.070;2024-01-11T10:54:42;9.50;76.10
11264;DHT22;5689;48.798;9.070;2024-01-11T10:57:11;8.10;76.80
11264;DHT22;5689;48.798;9.070;2024-01-11T10:59:41;9.60;75.00
11264;DHT22;5689;48.798;9.070;2024-01-11T11:02:11;8.70;75.00
11264;DHT22;5689;48.798;9.070;2024-01-11T11:04:42;8.80;75.50
11264;DHT22;5689;48.798;9.070;2024-01-11T11:07:11;7.00;77.10
11264;DHT22;5689;48.798;9.070;2024-01-11T11:09:43;5.60;82.60
11264;DHT22;5689;48.798;9.070;2024-01-11T11:12:12;7.60;80.30
11264;DHT22;5689;48.798;9.070;2024-01-11T11:14:41;6.50;80.10
11264;DHT22;5689;48.798;9.070;2024-01-11T11:17:14;5.70;82.50
11264;DHT22;5689;48.798;9.070;2024-01-11T11:19:43;6.50;83.70
11264;DHT22;5689;48.798;9.070;2024-01-11T11:22:13;7.00;78.50
11264;DHT22;5689;48.798;9.070;2024-01-11T11:24:42;8.30;78.50
11264;DHT22;5689;48.798;9.070;2024-01-11T11:27:13;10.80;71.30
11264;DHT22;5689;48.798;9.070;2024-01-11T11:29:41;10.70;66.70
11264;DHT22;5689;48.798;9.070;2024-01-11T11:32:16;7.30;74.50
11264;DHT22;5689;48.798;9.070;2024-01-11T11:34:44;6.00;76.90
11264;DHT22;5689;48.798;9.070;2024-01-11T11:37:12;6.10;78.90
11264;DHT22;5689;48.798;9.070;2024-01-11T11:39:50;5.80;77.30
11264;DHT22;5689;48.798;9.070;2024-01-11T11:42:18;4.70;84.00
11264;DHT22;5689;48.798;9.070;2024-01-11T11:44:50;7.50;78.80
11264;DHT22;5689;48.798;9.070;2024-01-11T11:47:21;9.20;73.60
11264;DHT22;5689;48.798;9.070;2024-01-11T11:49:57;11.20;66.80
11264;DHT22;5689;48.798;9.070;2024-01-11T11:52:26;7.60;72.50
11264;DHT22;5689;48.798;9.070;2024-01-11T11:54:56;6.40;77.70
11264;DHT22;5689;48.798;9.070;2024-01-11T11:57:24;6.80;76.90
11264;DHT22;5689;48.798;9.070;2024-01-11T11:59:54;8.10;76.90
11264;DHT22;5689;48.798;9.070;2024-01-11T12:02:25;9.70;70.70
11264;DHT22;5689;48.798;9.070;2024-01-11T12:04:54;10.40;69.40
11264;DHT22;5689;48.798;9.070;2024-01-11T12:07:22;12.20;63.70
11264;DHT22;5689;48.798;9.070;2024-01-11T12:09:51;12.20;63.00
11264;DHT22;5689;48.798;9.070;2024-01-11T12:12:20;12.90;59.80
11264;DHT22;5689;48.798;9.070;2024-01-11T12:14:48;10.80;64.30
11264;DHT22;5689;48.798;9.070;2024-01-11T12:17:16;10.70;65.80
11264;DHT22;5689;48.798;9.070;2024-01-11T12:19:46;11.30;63.30
11264;DHT22;5689;48.798;9.070;2024-01-11T12:22:15;10.60;64.30
11264;DHT22;5689;48.798;9.070;2024-01-11T12:24:46;9.80;66.70
11264;DHT22;5689;48.798;9.070;2024-01-11T12:27:14;11.30;64.20
11264;DHT22;5689;48.798;9.070;2024-01-11T12:29:42;10.80;64.20
11264;DHT22;5689;48.798;9.070;2024-01-11T12:32:14;9.60;67.80
11264;DHT22;5689;48.798;9.070;2024-01-11T12:34:46;7.90;69.20
11264;DHT22;5689;48.798;9.070;2024-01-11T12:37:16;7.40;71.90
11264;DHT22;5689;48.798;9.070;2024-01-11T12:39:44;5.70;77.20
11264;DHT22;5689;48.798;9.070;2024-01-11T12:42:13;6.80;75.30
11264;DHT22;5689;48.798;9.070;2024-01-11T12:44:41;7.60;71.60
11264;DHT22;5689;48.798;9.070;2024-01-11T12:47:09;5.50;75.40
11264;DHT22;5689;48.798;9.070;2024-01-11T12:49:43;4.50;80.90
11264;DHT22;5689;48.798;9.070;2024-01-11T12:52:17;3.80;82.30
11264;DHT22;5689;48.798;9.070;2024-01-11T12:54:45;3.10;85.30
11264;DHT22;5689;48.798;9.070;2024-01-11T12:57:18;1.90;89.50
11264;DHT22;5689;48.798;9.070;2024-01-11T12:59:46;2.10;90.20
11264;DHT22;5689;48.798;9.070;2024-01-11T13:02:15;1.40;91.00
11264;DHT22;5689;48.798;9.070;2024-01-11T13:04:45;1.40;92.20
11264;DHT22;5689;48.798;9.070;2024-01-11T13:07:14;1.50;92.10
11264;DHT22;5689;48.798;9.070;2024-01-11T13:09:44;1.50;93.00
11264;DHT22;5689;48.798;9.070;2024-01-11T13:12:12;1.20;92.70
11264;DHT22;5689;48.798;9.070;2024-01-11T13:14:40;1.10;94.50
11264;DHT22;5689;48.798;9.070;2024-01-11T13:17:08;1.10;94.30
11264;DHT22;5689;48.798;9.070;2024-01-11T13:19:37;1.80;93.70
11264;DHT22;5689;48.798;9.070;2024-01-11T13:22:06;1.90;93.20
11264;DHT22;5689;48.798;9.070;2024-01-11T13:24:34;1.20;93.60
11264;DHT22;5689;48.798;9.070;2024-01-11T13:27:03;1.10;94.60
11264;DHT22;5689;48.798;9.070;2024-01-11T13:29:32;1.20;94.30
11264;DHT22;5689;48.798;9.070;2024-01-11T13:32:00;0.90;94.70
11264;DHT22;5689;48.798;9.070;2024-01-11T13:34:28;1.70;95.20
11264;DHT22;5689;48.798;9.070;2024-01-11T13:36:56;2.20;93.40
11264;DHT22;5689;48.798;9.070;2024-01-11T13:39:26;1.80;93.80
11264;DHT22;5689;48.798;9.070;2024-01-11T13:41:54;2.30;93.50
11264;DHT22;5689;48.798;9.070;2024-01-11T13:44:24;2.60;92.50
11264;DHT22;5689;48.798;9.070;2024-01-11T13:46:52;4.80;91.70
11264;DHT22;5689;48.798;9.070;2024-01-11T13:49:20;7.20;84.20
11264;DHT22;5689;48.798;9.070;2024-01-11T13:51:51;7.00;78.30
11264;DHT22;5689;48.798;9.070;2024-01-11T13:54:19;6.20;80.60
11264;DHT22;5689;48.798;9.070;2024-01-11T13:56:49;5.90;80.80
11264;DHT22;5689;48.798;9.070;2024-01-11T13:59:18;6.60;81.10
11264;DHT22;5689;48.798;9.070;2024-01-11T14:01:48;7.30;78.20
11264;DHT22;5689;48.798;9.070;2024-01-11T14:04:16;7.30;76.70
11264;DHT22;5689;48.798;9.070;2024-01-11T14:06:44;6.30;78.90
11264;DHT22;5689;48.798;9.070;2024-01-11T14:09:12;4.80;81.80
11264;DHT22;5689;48.798;9.070;2024-01-11T14:11:40;3.50;85.30
11264;DHT22;5689;48.798;9.070;2024-01-11T14:14:08;2.80;88.50
11264;DHT22;5689;48.798;9.070;2024-01-11T14:16:36;2.30;90.00
11264;DHT22;5689;48.798;9.070;2024-01-11T14:19:06;1.10;92.10
11264;DHT22;5689;48.798;9.070;2024-01-11T14:21:35;0.70;93.70
11264;DHT22;5689;48.798;9.070;2024-01-11T14:24:04;0.60;93.90
11264;DHT22;5689;48.798;9.070;2024-01-11T14:26:33;0.60;94.60
11264;DHT22;5689;48.798;9.070;2024-01-11T14:29:02;0.80;94.50
11264;DHT22;5689;48.798;9.070;2024-01-11T14:31:30;1.00;94.40
11264;DHT22;5689;48.798;9.070;2024-01-11T14:33:58;1.10;94.20
11264;DHT22;5689;48.798;9.070;2024-01-11T14:36:28;1.30;94.00
11264;DHT22;5689;48.798;9.070;2024-01-11T14:38:56;0.70;95.00
11264;DHT22;5689;48.798;9.070;2024-01-11T14:41:24;0.50;95.30
11264;DHT22;5689;48.798;9.070;2024-01-11T14:43:53;0.50;95.40
11264;DHT22;5689;48.798;9.070;2024-01-11T14:46:21;0.00;96.40
11264;DHT22;5689;48.798;9.070;2024-01-11T14:48:49;0.10;96.40
11264;DHT22;5689;48.798;9.070;2024-01-11T14:51:17;-0.20;97.30
11264;DHT22;5689;48.798;9.070;2024-01-11T14:53:47;-0.20;98.30
11264;DHT22;5689;48.798;9.070;2024-01-11T14:56:15;-0.40;99.00
11264;DHT22;5689;48.798;9.070;2024-01-11T14:58:43;-0.20;99.50
11264;DHT22;5689;48.798;9.070;2024-01-11T15:01:12;-0.40;99.90
11264;DHT22;5689;48.798;9.070;2024-01-11T15:03:40;-0.50;99.90
11264;DHT22;5689;48.798;9.070;2024-01-11T15:06:09;-0.40;99.90
11264;DHT22;5689;48.798;9.070;2024-01-11T15:08:37;-0.30;99.90
11264;DHT22;5689;48.798;9.070;2024-01-11T15:11:08;-0.30;99.90
11264;DHT22;5689;48.798;9.070;2024-01-11T15:13:36;-0.40;99.90
11264;DHT22;5689;48.798;9.070;2024-01-11T15:16:04;-0.40;99.90
11264;DHT22;5689;48.798;9.070;2024-01-11T15:18:32;-0.30;99.90
11264;DHT22;5689;48.798;9.070;2024-01-11T15:21:01;-0.40;99.90
11264;DHT22;5689;48.798;9.070;2024-01-11T15:23:29;-0.60;99.90
11264;DHT22;5689;48.798;9.070;2024-01-11T15:25:57;-0.70;99.90
11264;DHT22;5689;48.798;9.070;2024-01-11T15:28:27;-0.80;99.90
11264;DHT22;5689;48.798;9.070;2024-01-11T15:30:55;-0.90;99.90
11264;DHT22;5689;48.798;9.070;2024-01-11T15:33:23;-0.90;99.90
11264;DHT22;5689;48.798;9.070;2024-01-11T15:35:52;-1.00;99.90
11264;DHT22;5689;48.798;9.070;2024-01-11T15:38:20;-1.20;99.90
11264;DHT22;5689;48.798;9.070;2024-01-11T15:40:48;-1.30;99.90
11264;DHT22;5689;48.798;9.070;2024-01-11T15:43:17;-1.40;99.90
11264;DHT22;5689;48.798;9.070;2024-01-11T15:45:46;-1.50;99.90
11264;DHT22;5689;48.798;9.070;2024-01-11T15:48:14;-1.60;99.90
11264;DHT22;5689;48.798;9.070;2024-01-11T15:50:42;-1.70;99.90
11264;DHT22;5689;48.798;9.070;2024-01-11T15:53:10;-1.80;99.90
11264;DHT22;5689;48.798;9.070;2024-01-11T15:55:39;-1.70;99.90
11264;DHT22;5689;48.798;9.070;2024-01-11T15:58:07;-1.70;99.90
11264;DHT22;5689;48.798;9.070;2024-01-11T16:00:35;-1.80;99.90